sensor_id;sensor_type;location;lat;lon;timestamp;temperature;humidity
7738;DHT22;29398;45.328;5.558;2023-05-10T00:00:31;14.20;99.90
7738;DHT22;29398;45.328;5.558;2023-05-10T00:01:34;14.20;99.90
7738;DHT22;29398;45.328;5.558;2023-05-10T00:02:35;14.20;99.90
7738;DHT22;29398;45.328;5.558;2023-05-10T00:03:37;14.10;99.90
7738;DHT22;29398;45.328;5.558;2023-05-10T00:04:38;14.10;99.90
7738;DHT22;29398;45.328;5.558;2023-05-10T00:05:40;14.10;99.90
7738;DHT22;29398;45.328;5.558;2023-05-10T00:06:41;14.00;99.90
7738;DHT22;29398;45.328;5.558;2023-05-10T00:07:43;14.00;99.90
7738;DHT22;29398;45.328;5.558;2023-05-10T00:08:45;14.00;99.90
7738;DHT22;29398;45.328;5.558;2023-05-10T00:09:47;14.00;99.90
7738;DHT22;29398;45.328;5.558;2023-05-10T00:10:47;13.90;99.90
7738;DHT22;29398;45.328;5.558;2023-05-10T00:11:49;13.90;99.90
7738;DHT22;29398;45.328;5.558;2023-05-10T00:12:50;13.80;99.90
7738;DHT22;29398;45.328;5.558;2023-05-10T00:13:52;13.70;99.90
7738;DHT22;29398;45.328;5.558;2023-05-10T00:14:53;13.70;99.90
7738;DHT22;29398;45.328;5.558;2023-05-10T00:15:55;13.70;99.90
7738;DHT22;29398;45.328;5.558;2023-05-10T00:16:57;13.70;99.90
7738;DHT22;29398;45.328;5.558;2023-05-10T00:17:59;13.70;99.90
7738;DHT22;29398;45.328;5.558;2023-05-10T00:19:00;13.70;99.90
7738;DHT22;29398;45.328;5.558;2023-05-10T00:20:02;13.80;99.90
7738;DHT22;29398;45.328;5.558;2023-05-10T00:21:05;13.80;99.90
7738;DHT22;29398;45.328;5.558;2023-05-10T00:22:07;13.80;99.90
7738;DHT22;29398;45.328;5.558;2023-05-10T00:23:08;13.80;99.90
7738;DHT22;29398;45.328;5.558;2023-05-10T00:24:10;13.90;99.90
7738;DHT22;29398;45.328;5.558;2023-05-10T00:25:10;13.90;99.90
7738;DHT22;29398;45.328;5.558;2023-05-10T00:26:12;13.90;99.90
7738;DHT22;29398;45.328;5.558;2023-05-10T00:27:15;14.00;99.90
7738;DHT22;29398;45.328;5.558;2023-05-10T00:28:18;14.00;99.90
7738;DHT22;29398;45.328;5.558;2023-05-10T00:29:19;14.00;99.90
7738;DHT22;29398;45.328;5.558;2023-05-10T00:30:22;14.00;99.90
7738;DHT22;29398;45.328;5.558;2023-05-10T00:31:23;14.00;99.90
7738;DHT22;29398;45.328;5.558;2023-05-10T00:32:26;14.10;99.90
7738;DHT22;29398;45.328;5.558;2023-05-10T00:33:27;14.00;99.90
7738;DHT22;29398;45.328;5.558;2023-05-10T00:34:29;14.00;99.90
7738;DHT22;29398;45.328;5.558;2023-05-10T00:35:30;14.00;99.90
7738;DHT22;29398;45.328;5.558;2023-05-10T00:36:32;14.00;99.90
7738;DHT22;29398;45.328;5.558;2023-05-10T00:37:33;14.00;99.90
7738;DHT22;29398;45.328;5.558;2023-05-10T00:38:35;14.00;99.90
7738;DHT22;29398;45.328;5.558;2023-05-10T00:39:37;14.10;99.90
7738;DHT22;29398;45.328;5.558;2023-05-10T00:40:39;14.00;99.90
7738;DHT22;29398;45.328;5.558;2023-05-10T00:41:45;13.90;99.90
7738;DHT22;29398;45.328;5.558;2023-05-10T00:42:47;13.80;99.90
7738;DHT22;29398;45.328;5.558;2023-05-10T00:43:48;13.80;99.90
7738;DHT22;29398;45.328;5.558;2023-05-10T00:44:50;13.80;99.90
7738;DHT22;29398;45.328;5.558;2023-05-10T00:45:51;13.80;99.90
7738;DHT22;29398;45.328;5.558;2023-05-10T00:46:54;13.80;99.90
7738;DHT22;29398;45.328;5.558;2023-05-10T00:47:56;13.80;99.90
7738;DHT22;29398;45.328;5.558;2023-05-10T00:48:58;13.80;99.90
7738;DHT22;29398;45.328;5.558;2023-05-10T00:49:59;13.80;99.90
7738;DHT22;29398;45.328;5.558;2023-05-10T00:51:02;13.80;99.90
7738;DHT22;29398;45.328;5.558;2023-05-10T00:52:03;13.80;99.90
7738;DHT22;29398;45.328;5.558;2023-05-10T00:53:05;13.80;99.90
7738;DHT22;29398;45.328;5.558;2023-05-10T00:54:06;13.80;99.90
7738;DHT22;29398;45.328;5.558;2023-05-10T00:55:08;13.80;99.90
7738;DHT22;29398;45.328;5.558;2023-05-10T00:56:10;13.80;99.90
7738;DHT22;29398;45.328;5.558;2023-05-10T00:57:12;13.80;99.90
7738;DHT22;29398;45.328;5.558;2023-05-10T00:58:12;13.80;99.90
7738;DHT22;29398;45.328;5.558;2023-05-10T00:59:14;13.80;99.90
7738;DHT22;29398;45.328;5.558;2023-05-10T01:00:17;13.80;99.90
7738;DHT22;29398;45.328;5.558;2023-05-10T01:01:19;13.80;99.90
7738;DHT22;29398;45.328;5.558;2023-05-10T01:02:20;13.80;99.90
7738;DHT22;29398;45.328;5.558;2023-05-10T01:03:24;13.70;99.90
7738;DHT22;29398;45.328;5.558;2023-05-10T01:04:25;13.80;99.90
7738;DHT22;29398;45.328;5.558;2023-05-10T01:05:26;13.70;99.90
7738;DHT22;29398;45.328;5.558;2023-05-10T01:06:28;13.70;99.90
7738;DHT22;29398;45.328;5.558;2023-05-10T01:07:30;13.70;99.90
7738;DHT22;29398;45.328;5.558;2023-05-10T01:08:30;13.70;99.90
7738;DHT22;29398;45.328;5.558;2023-05-10T01:09:32;13.70;99.90
7738;DHT22;29398;45.328;5.558;2023-05-10T01:10:34;13.70;99.90
7738;DHT22;29398;45.328;5.558;2023-05-10T01:11:36;13.60;99.90
7738;DHT22;29398;45.328;5.558;2023-05-10T01:12:39;13.60;99.90
7738;DHT22;29398;45.328;5.558;2023-05-10T01:13:42;13.60;99.90
7738;DHT22;29398;45.328;5.558;2023-05-10T01:14:43;13.60;99.90
7738;DHT22;29398;45.328;5.558;2023-05-10T01:15:45;13.60;99.90
7738;DHT22;29398;45.328;5.558;2023-05-10T01:16:47;13.70;99.90
7738;DHT22;29398;45.328;5.558;2023-05-10T01:17:50;13.70;99.90
7738;DHT22;29398;45.328;5.558;2023-05-10T01:18:53;13.70;99.90
7738;DHT22;29398;45.328;5.558;2023-05-10T01:19:55;13.70;99.90
7738;DHT22;29398;45.328;5.558;2023-05-10T01:20:58;13.70;99.90
7738;DHT22;29398;45.328;5.558;2023-05-10T01:22:06;13.60;99.90
7738;DHT22;29398;45.328;5.558;2023-05-10T01:23:30;13.60;99.90
7738;DHT22;29398;45.328;5.558;2023-05-10T01:27:19;13.70;99.90
7738;DHT22;29398;45.328;5.558;2023-05-10T01:28:28;13.70;99.90
7738;DHT22;29398;45.328;5.558;2023-05-10T01:31:03;13.60;99.90
7738;DHT22;29398;45.328;5.558;2023-05-10T01:32:25;13.70;99.90
7738;DHT22;29398;45.328;5.558;2023-05-10T01:33:28;13.60;99.90
7738;DHT22;29398;45.328;5.558;2023-05-10T01:34:33;13.60;99.90
7738;DHT22;29398;45.328;5.558;2023-05-10T01:35:37;13.60;99.90
7738;DHT22;29398;45.328;5.558;2023-05-10T01:36:43;13.60;99.90
7738;DHT22;29398;45.328;5.558;2023-05-10T01:37:46;13.70;99.90
7738;DHT22;29398;45.328;5.558;2023-05-10T01:38:53;13.60;99.90
7738;DHT22;29398;45.328;5.558;2023-05-10T01:39:58;13.70;99.90
7738;DHT22;29398;45.328;5.558;2023-05-10T01:41:04;13.70;99.90
7738;DHT22;29398;45.328;5.558;2023-05-10T01:42:09;13.70;99.90
7738;DHT22;29398;45.328;5.558;2023-05-10T01:43:14;13.70;99.90
7738;DHT22;29398;45.328;5.558;2023-05-10T01:44:20;13.60;99.90
7738;DHT22;29398;45.328;5.558;2023-05-10T01:45:27;13.60;99.90
7738;DHT22;29398;45.328;5.558;2023-05-10T01:46:32;13.60;99.90
7738;DHT22;29398;45.328;5.558;2023-05-10T01:47:37;13.70;99.90
7738;DHT22;29398;45.328;5.558;2023-05-10T01:48:40;13.70;99.90
7738;DHT22;29398;45.328;5.558;2023-05-10T01:49:47;13.70;99.90
7738;DHT22;29398;45.328;5.558;2023-05-10T01:50:48;13.70;99.90
7738;DHT22;29398;45.328;5.558;2023-05-10T01:51:52;13.70;99.90
7738;DHT22;29398;45.328;5.558;2023-05-10T01:52:56;13.70;99.90
7738;DHT22;29398;45.328;5.558;2023-05-10T01:53:59;13.60;99.90
7738;DHT22;29398;45.328;5.558;2023-05-10T01:55:01;13.60;99.90
7738;DHT22;29398;45.328;5.558;2023-05-10T01:56:04;13.60;99.90
7738;DHT22;29398;45.328;5.558;2023-05-10T01:57:06;13.60;99.90
7738;DHT22;29398;45.328;5.558;2023-05-10T01:58:13;13.70;99.90
7738;DHT22;29398;45.328;5.558;2023-05-10T01:59:15;13.70;99.90
7738;DHT22;29398;45.328;5.558;2023-05-10T02:00:18;13.70;99.90
7738;DHT22;29398;45.328;5.558;2023-05-10T02:01:20;13.70;99.90
7738;DHT22;29398;45.328;5.558;2023-05-10T02:02:22;13.80;99.90
7738;DHT22;29398;45.328;5.558;2023-05-10T02:03:26;13.80;99.90
7738;DHT22;29398;45.328;5.558;2023-05-10T02:04:29;13.80;99.90
7738;DHT22;29398;45.328;5.558;2023-05-10T02:05:31;13.90;99.90
7738;DHT22;29398;45.328;5.558;2023-05-10T02:06:33;13.90;99.90
7738;DHT22;29398;45.328;5.558;2023-05-10T02:07:35;13.90;99.90
7738;DHT22;29398;45.328;5.558;2023-05-10T02:08:37;13.90;99.90
7738;DHT22;29398;45.328;5.558;2023-05-10T02:09:39;13.90;99.90
7738;DHT22;29398;45.328;5.558;2023-05-10T02:10:42;13.90;99.90
7738;DHT22;29398;45.328;5.558;2023-05-10T02:11:43;13.80;99.90
7738;DHT22;29398;45.328;5.558;2023-05-10T02:12:47;13.80;99.90
7738;DHT22;29398;45.328;5.558;2023-05-10T02:13:49;13.80;99.90
7738;DHT22;29398;45.328;5.558;2023-05-10T02:14:52;13.70;99.90
7738;DHT22;29398;45.328;5.558;2023-05-10T02:15:53;13.70;99.90
7738;DHT22;29398;45.328;5.558;2023-05-10T02:16:56;13.80;99.90
7738;DHT22;29398;45.328;5.558;2023-05-10T02:17:57;13.70;99.90
7738;DHT22;29398;45.328;5.558;2023-05-10T02:19:01;13.80;99.90
7738;DHT22;29398;45.328;5.558;2023-05-10T02:20:03;13.80;99.90
7738;DHT22;29398;45.328;5.558;2023-05-10T02:21:05;13.90;99.90
7738;DHT22;29398;45.328;5.558;2023-05-10T02:22:06;13.90;99.90
7738;DHT22;29398;45.328;5.558;2023-05-10T02:23:09;13.80;99.90
7738;DHT22;29398;45.328;5.558;2023-05-10T02:24:10;13.80;99.90
7738;DHT22;29398;45.328;5.558;2023-05-10T02:25:13;13.80;99.90
7738;DHT22;29398;45.328;5.558;2023-05-10T02:26:14;13.80;99.90
7738;DHT22;29398;45.328;5.558;2023-05-10T02:27:17;13.80;99.90
7738;DHT22;29398;45.328;5.558;2023-05-10T02:28:20;13.90;99.90
7738;DHT22;29398;45.328;5.558;2023-05-10T02:29:23;14.00;99.90
7738;DHT22;29398;45.328;5.558;2023-05-10T02:30:24;14.00;99.90
7738;DHT22;29398;45.328;5.558;2023-05-10T02:31:26;14.00;99.90
7738;DHT22;29398;45.328;5.558;2023-05-10T02:32:27;14.00;99.90
7738;DHT22;29398;45.328;5.558;2023-05-10T02:33:31;14.10;99.90
7738;DHT22;29398;45.328;5.558;2023-05-10T02:34:33;14.10;99.90
7738;DHT22;29398;45.328;5.558;2023-05-10T02:35:36;14.10;99.90
7738;DHT22;29398;45.328;5.558;2023-05-10T02:36:38;14.10;99.90
7738;DHT22;29398;45.328;5.558;2023-05-10T02:37:41;14.10;99.90
7738;DHT22;29398;45.328;5.558;2023-05-10T02:38:43;14.20;99.90
7738;DHT22;29398;45.328;5.558;2023-05-10T02:39:45;14.20;99.90
7738;DHT22;29398;45.328;5.558;2023-05-10T02:40:47;14.20;99.90
7738;DHT22;29398;45.328;5.558;2023-05-10T02:41:50;14.10;99.90
7738;DHT22;29398;45.328;5.558;2023-05-10T02:42:52;14.10;99.90
7738;DHT22;29398;45.328;5.558;2023-05-10T02:43:56;14.10;99.90
7738;DHT22;29398;45.328;5.558;2023-05-10T02:44:59;14.10;99.90
7738;DHT22;29398;45.328;5.558;2023-05-10T02:46:01;14.00;99.90
7738;DHT22;29398;45.328;5.558;2023-05-10T02:47:02;14.00;99.90
7738;DHT22;29398;45.328;5.558;2023-05-10T02:48:04;14.00;99.90
7738;DHT22;29398;45.328;5.558;2023-05-10T02:49:05;14.10;99.90
7738;DHT22;29398;45.328;5.558;2023-05-10T02:50:09;14.10;99.90
7738;DHT22;29398;45.328;5.558;2023-05-10T02:51:10;14.10;99.90
7738;DHT22;29398;45.328;5.558;2023-05-10T02:52:14;14.10;99.90
7738;DHT22;29398;45.328;5.558;2023-05-10T02:53:18;14.10;99.90
7738;DHT22;29398;45.328;5.558;2023-05-10T02:54:22;14.10;99.90
7738;DHT22;29398;45.328;5.558;2023-05-10T02:55:25;14.20;99.90
7738;DHT22;29398;45.328;5.558;2023-05-10T02:56:29;14.20;99.90
7738;DHT22;29398;45.328;5.558;2023-05-10T02:57:33;14.20;99.90
7738;DHT22;29398;45.328;5.558;2023-05-10T02:58:35;14.20;99.90
7738;DHT22;29398;45.328;5.558;2023-05-10T02:59:36;14.20;99.90
7738;DHT22;29398;45.328;5.558;2023-05-10T03:00:38;14.20;99.90
7738;DHT22;29398;45.328;5.558;2023-05-10T03:01:39;14.20;99.90
7738;DHT22;29398;45.328;5.558;2023-05-10T03:02:41;14.20;99.90
7738;DHT22;29398;45.328;5.558;2023-05-10T03:03:42;14.20;99.90
7738;DHT22;29398;45.328;5.558;2023-05-10T03:04:44;14.20;99.90
7738;DHT22;29398;45.328;5.558;2023-05-10T03:05:47;14.20;99.90
7738;DHT22;29398;45.328;5.558;2023-05-10T03:06:49;14.30;99.90
7738;DHT22;29398;45.328;5.558;2023-05-10T03:07:50;14.30;99.90
7738;DHT22;29398;45.328;5.558;2023-05-10T03:08:53;14.30;99.90
7738;DHT22;29398;45.328;5.558;2023-05-10T03:09:54;14.30;99.90
7738;DHT22;29398;45.328;5.558;2023-05-10T03:11:01;14.30;99.90
7738;DHT22;29398;45.328;5.558;2023-05-10T03:12:07;14.40;99.90
7738;DHT22;29398;45.328;5.558;2023-05-10T03:13:12;14.40;99.90
7738;DHT22;29398;45.328;5.558;2023-05-10T03:14:21;14.40;99.90
7738;DHT22;29398;45.328;5.558;2023-05-10T03:15:25;14.30;99.90
7738;DHT22;29398;45.328;5.558;2023-05-10T03:16:33;14.20;99.90
7738;DHT22;29398;45.328;5.558;2023-05-10T03:17:39;14.10;99.90
7738;DHT22;29398;45.328;5.558;2023-05-10T03:18:42;14.10;99.90
7738;DHT22;29398;45.328;5.558;2023-05-10T03:19:46;14.10;99.90
7738;DHT22;29398;45.328;5.558;2023-05-10T03:20:54;14.20;99.90
7738;DHT22;29398;45.328;5.558;2023-05-10T03:21:59;14.20;99.90
7738;DHT22;29398;45.328;5.558;2023-05-10T03:23:04;14.30;99.90
7738;DHT22;29398;45.328;5.558;2023-05-10T03:24:07;14.30;99.90
7738;DHT22;29398;45.328;5.558;2023-05-10T03:25:10;14.30;99.90
7738;DHT22;29398;45.328;5.558;2023-05-10T03:26:16;14.30;99.90
7738;DHT22;29398;45.328;5.558;2023-05-10T03:27:19;14.30;99.90
7738;DHT22;29398;45.328;5.558;2023-05-10T03:28:21;14.20;99.90
7738;DHT22;29398;45.328;5.558;2023-05-10T03:29:25;14.10;99.90
7738;DHT22;29398;45.328;5.558;2023-05-10T03:30:27;14.10;99.90
7738;DHT22;29398;45.328;5.558;2023-05-10T03:31:29;14.10;99.90
7738;DHT22;29398;45.328;5.558;2023-05-10T03:32:31;14.10;99.90
7738;DHT22;29398;45.328;5.558;2023-05-10T03:33:33;14.10;99.90
7738;DHT22;29398;45.328;5.558;2023-05-10T03:34:36;14.10;99.90
7738;DHT22;29398;45.328;5.558;2023-05-10T03:35:41;14.10;99.90
7738;DHT22;29398;45.328;5.558;2023-05-10T03:36:47;14.10;99.90
7738;DHT22;29398;45.328;5.558;2023-05-10T03:37:49;14.00;99.90
7738;DHT22;29398;45.328;5.558;2023-05-10T03:38:50;14.00;99.90
7738;DHT22;29398;45.328;5.558;2023-05-10T03:39:52;14.00;99.90
7738;DHT22;29398;45.328;5.558;2023-05-10T03:40:53;14.00;99.90
7738;DHT22;29398;45.328;5.558;2023-05-10T03:41:56;14.00;99.90
7738;DHT22;29398;45.328;5.558;2023-05-10T03:42:57;13.90;99.90
7738;DHT22;29398;45.328;5.558;2023-05-10T03:44:00;13.90;99.90
7738;DHT22;29398;45.328;5.558;2023-05-10T03:45:02;13.90;99.90
7738;DHT22;29398;45.328;5.558;2023-05-10T03:46:05;13.90;99.90
7738;DHT22;29398;45.328;5.558;2023-05-10T03:47:06;13.90;99.90
7738;DHT22;29398;45.328;5.558;2023-05-10T03:48:08;13.90;99.90
7738;DHT22;29398;45.328;5.558;2023-05-10T03:49:08;13.90;99.90
7738;DHT22;29398;45.328;5.558;2023-05-10T03:50:11;13.90;99.90
7738;DHT22;29398;45.328;5.558;2023-05-10T03:51:11;13.80;99.90
7738;DHT22;29398;45.328;5.558;2023-05-10T03:52:15;13.80;99.90
7738;DHT22;29398;45.328;5.558;2023-05-10T03:53:16;13.90;99.90
7738;DHT22;29398;45.328;5.558;2023-05-10T03:54:18;13.90;99.90
7738;DHT22;29398;45.328;5.558;2023-05-10T03:55:20;13.80;99.90
7738;DHT22;29398;45.328;5.558;2023-05-10T03:56:23;13.80;99.90
7738;DHT22;29398;45.328;5.558;2023-05-10T03:57:24;13.80;99.90
7738;DHT22;29398;45.328;5.558;2023-05-10T03:58:26;13.80;99.90
7738;DHT22;29398;45.328;5.558;2023-05-10T03:59:27;13.80;99.90
7738;DHT22;29398;45.328;5.558;2023-05-10T04:00:29;13.70;99.90
7738;DHT22;29398;45.328;5.558;2023-05-10T04:01:30;13.70;99.90
7738;DHT22;29398;45.328;5.558;2023-05-10T04:02:32;13.70;99.90
7738;DHT22;29398;45.328;5.558;2023-05-10T04:03:34;13.70;99.90
7738;DHT22;29398;45.328;5.558;2023-05-10T04:04:37;13.70;99.90
7738;DHT22;29398;45.328;5.558;2023-05-10T04:05:37;13.70;99.90
7738;DHT22;29398;45.328;5.558;2023-05-10T04:06:40;13.70;99.90
7738;DHT22;29398;45.328;5.558;2023-05-10T04:07:42;13.80;99.90
7738;DHT22;29398;45.328;5.558;2023-05-10T04:08:45;13.70;99.90
7738;DHT22;29398;45.328;5.558;2023-05-10T04:09:46;13.80;99.90
7738;DHT22;29398;45.328;5.558;2023-05-10T04:10:48;13.80;99.90
7738;DHT22;29398;45.328;5.558;2023-05-10T04:11:49;13.80;99.90
7738;DHT22;29398;45.328;5.558;2023-05-10T04:12:51;13.80;99.90
7738;DHT22;29398;45.328;5.558;2023-05-10T04:13:53;13.80;99.90
7738;DHT22;29398;45.328;5.558;2023-05-10T04:14:54;13.90;99.90
7738;DHT22;29398;45.328;5.558;2023-05-10T04:15:55;13.80;99.90
7738;DHT22;29398;45.328;5.558;2023-05-10T04:16:57;13.90;99.90
7738;DHT22;29398;45.328;5.558;2023-05-10T04:17:58;13.90;99.90
7738;DHT22;29398;45.328;5.558;2023-05-10T04:19:00;13.90;99.90
7738;DHT22;29398;45.328;5.558;2023-05-10T04:20:01;13.90;99.90
7738;DHT22;29398;45.328;5.558;2023-05-10T04:21:03;13.80;99.90
7738;DHT22;29398;45.328;5.558;2023-05-10T04:22:04;13.80;99.90
7738;DHT22;29398;45.328;5.558;2023-05-10T04:23:08;13.80;99.90
7738;DHT22;29398;45.328;5.558;2023-05-10T04:24:09;13.80;99.90
7738;DHT22;29398;45.328;5.558;2023-05-10T04:25:10;13.80;99.90
7738;DHT22;29398;45.328;5.558;2023-05-10T04:26:12;13.70;99.90
7738;DHT22;29398;45.328;5.558;2023-05-10T04:27:14;13.70;99.90
7738;DHT22;29398;45.328;5.558;2023-05-10T04:28:15;13.70;99.90
7738;DHT22;29398;45.328;5.558;2023-05-10T04:29:16;13.70;99.90
7738;DHT22;29398;45.328;5.558;2023-05-10T04:30:17;13.70;99.90
7738;DHT22;29398;45.328;5.558;2023-05-10T04:31:19;13.60;99.90
7738;DHT22;29398;45.328;5.558;2023-05-10T04:32:20;13.60;99.90
7738;DHT22;29398;45.328;5.558;2023-05-10T04:33:22;13.60;99.90
7738;DHT22;29398;45.328;5.558;2023-05-10T04:34:23;13.70;99.90
7738;DHT22;29398;45.328;5.558;2023-05-10T04:35:25;13.70;99.90
7738;DHT22;29398;45.328;5.558;2023-05-10T04:36:25;13.70;99.90
7738;DHT22;29398;45.328;5.558;2023-05-10T04:37:28;13.70;99.90
7738;DHT22;29398;45.328;5.558;2023-05-10T04:38:30;13.60;99.90
7738;DHT22;29398;45.328;5.558;2023-05-10T04:39:32;13.60;99.90
7738;DHT22;29398;45.328;5.558;2023-05-10T04:40:33;13.50;99.90
7738;DHT22;29398;45.328;5.558;2023-05-10T04:41:34;13.50;99.90
7738;DHT22;29398;45.328;5.558;2023-05-10T04:42:35;13.50;99.90
7738;DHT22;29398;45.328;5.558;2023-05-10T04:43:38;13.50;99.90
7738;DHT22;29398;45.328;5.558;2023-05-10T04:44:39;13.50;99.90
7738;DHT22;29398;45.328;5.558;2023-05-10T04:45:41;13.40;99.90
7738;DHT22;29398;45.328;5.558;2023-05-10T04:46:42;13.40;99.90
7738;DHT22;29398;45.328;5.558;2023-05-10T04:47:43;13.30;99.90
7738;DHT22;29398;45.328;5.558;2023-05-10T04:48:44;13.30;99.90
7738;DHT22;29398;45.328;5.558;2023-05-10T04:49:46;13.30;99.90
7738;DHT22;29398;45.328;5.558;2023-05-10T04:50:47;13.30;99.90
7738;DHT22;29398;45.328;5.558;2023-05-10T04:51:49;13.30;99.90
7738;DHT22;29398;45.328;5.558;2023-05-10T04:52:50;13.30;99.90
7738;DHT22;29398;45.328;5.558;2023-05-10T04:53:53;13.30;99.90
7738;DHT22;29398;45.328;5.558;2023-05-10T04:54:54;13.30;99.90
7738;DHT22;29398;45.328;5.558;2023-05-10T04:55:56;13.30;99.90
7738;DHT22;29398;45.328;5.558;2023-05-10T04:56:57;13.40;99.90
7738;DHT22;29398;45.328;5.558;2023-05-10T04:57:59;13.20;99.90
7738;DHT22;29398;45.328;5.558;2023-05-10T04:59:00;13.20;99.90
7738;DHT22;29398;45.328;5.558;2023-05-10T05:00:02;13.20;99.90
7738;DHT22;29398;45.328;5.558;2023-05-10T05:01:06;13.30;99.90
7738;DHT22;29398;45.328;5.558;2023-05-10T05:02:08;13.30;99.90
7738;DHT22;29398;45.328;5.558;2023-05-10T05:03:09;13.30;99.90
7738;DHT22;29398;45.328;5.558;2023-05-10T05:04:11;13.30;99.90
7738;DHT22;29398;45.328;5.558;2023-05-10T05:05:12;13.30;99.90
7738;DHT22;29398;45.328;5.558;2023-05-10T05:06:14;13.30;99.90
7738;DHT22;29398;45.328;5.558;2023-05-10T05:07:15;13.30;99.90
7738;DHT22;29398;45.328;5.558;2023-05-10T05:08:17;13.40;99.90
7738;DHT22;29398;45.328;5.558;2023-05-10T05:09:19;13.50;99.90
7738;DHT22;29398;45.328;5.558;2023-05-10T05:10:21;13.50;99.90
7738;DHT22;29398;45.328;5.558;2023-05-10T05:11:22;13.50;99.90
7738;DHT22;29398;45.328;5.558;2023-05-10T05:12:24;13.50;99.90
7738;DHT22;29398;45.328;5.558;2023-05-10T05:13:24;13.50;99.90
7738;DHT22;29398;45.328;5.558;2023-05-10T05:14:26;13.50;99.90
7738;DHT22;29398;45.328;5.558;2023-05-10T05:15:27;13.60;99.90
7738;DHT22;29398;45.328;5.558;2023-05-10T05:16:30;13.60;99.90
7738;DHT22;29398;45.328;5.558;2023-05-10T05:17:31;13.60;99.90
7738;DHT22;29398;45.328;5.558;2023-05-10T05:18:33;13.60;99.90
7738;DHT22;29398;45.328;5.558;2023-05-10T05:19:34;13.60;99.90
7738;DHT22;29398;45.328;5.558;2023-05-10T05:20:36;13.70;99.90
7738;DHT22;29398;45.328;5.558;2023-05-10T05:21:37;13.70;99.90
7738;DHT22;29398;45.328;5.558;2023-05-10T05:22:39;13.70;99.90
7738;DHT22;29398;45.328;5.558;2023-05-10T05:23:41;13.70;99.90
7738;DHT22;29398;45.328;5.558;2023-05-10T05:24:43;13.80;99.90
7738;DHT22;29398;45.328;5.558;2023-05-10T05:25:45;13.90;99.90
7738;DHT22;29398;45.328;5.558;2023-05-10T05:26:46;13.90;99.90
7738;DHT22;29398;45.328;5.558;2023-05-10T05:27:48;13.90;99.90
7738;DHT22;29398;45.328;5.558;2023-05-10T05:28:49;13.90;99.90
7738;DHT22;29398;45.328;5.558;2023-05-10T05:29:54;13.90;99.90
7738;DHT22;29398;45.328;5.558;2023-05-10T05:30:55;13.90;99.90
7738;DHT22;29398;45.328;5.558;2023-05-10T05:31:57;13.90;99.90
7738;DHT22;29398;45.328;5.558;2023-05-10T05:32:58;13.90;99.90
7738;DHT22;29398;45.328;5.558;2023-05-10T05:34:00;13.90;99.90
7738;DHT22;29398;45.328;5.558;2023-05-10T05:35:00;13.90;99.90
7738;DHT22;29398;45.328;5.558;2023-05-10T05:36:02;13.90;99.90
7738;DHT22;29398;45.328;5.558;2023-05-10T05:37:04;13.90;99.90
7738;DHT22;29398;45.328;5.558;2023-05-10T05:38:05;13.90;99.90
7738;DHT22;29398;45.328;5.558;2023-05-10T05:39:06;13.80;99.90
7738;DHT22;29398;45.328;5.558;2023-05-10T05:40:11;13.80;99.90
7738;DHT22;29398;45.328;5.558;2023-05-10T05:41:12;13.90;99.90
7738;DHT22;29398;45.328;5.558;2023-05-10T05:42:14;13.90;99.90
7738;DHT22;29398;45.328;5.558;2023-05-10T05:43:17;13.90;99.90
7738;DHT22;29398;45.328;5.558;2023-05-10T05:44:18;13.90;99.90
7738;DHT22;29398;45.328;5.558;2023-05-10T05:45:20;13.90;99.90
7738;DHT22;29398;45.328;5.558;2023-05-10T05:46:21;13.90;99.90
7738;DHT22;29398;45.328;5.558;2023-05-10T05:47:23;13.90;99.90
7738;DHT22;29398;45.328;5.558;2023-05-10T05:48:24;14.00;99.90
7738;DHT22;29398;45.328;5.558;2023-05-10T05:49:26;13.90;99.90
7738;DHT22;29398;45.328;5.558;2023-05-10T05:50:27;13.90;99.90
7738;DHT22;29398;45.328;5.558;2023-05-10T05:51:29;13.90;99.90
7738;DHT22;29398;45.328;5.558;2023-05-10T05:52:30;14.00;99.90
7738;DHT22;29398;45.328;5.558;2023-05-10T05:53:31;14.00;99.90
7738;DHT22;29398;45.328;5.558;2023-05-10T05:54:32;14.10;99.90
7738;DHT22;29398;45.328;5.558;2023-05-10T05:55:36;14.10;99.90
7738;DHT22;29398;45.328;5.558;2023-05-10T05:56:36;14.20;99.90
7738;DHT22;29398;45.328;5.558;2023-05-10T05:57:38;14.20;99.90
7738;DHT22;29398;45.328;5.558;2023-05-10T05:58:39;14.20;99.90
7738;DHT22;29398;45.328;5.558;2023-05-10T05:59:41;14.20;99.90
7738;DHT22;29398;45.328;5.558;2023-05-10T06:00:44;14.20;99.90
7738;DHT22;29398;45.328;5.558;2023-05-10T06:01:46;14.20;99.90
7738;DHT22;29398;45.328;5.558;2023-05-10T06:02:48;14.20;99.90
7738;DHT22;29398;45.328;5.558;2023-05-10T06:03:49;14.20;99.90
7738;DHT22;29398;45.328;5.558;2023-05-10T06:04:51;14.20;99.90
7738;DHT22;29398;45.328;5.558;2023-05-10T06:05:52;14.10;99.90
7738;DHT22;29398;45.328;5.558;2023-05-10T06:06:54;14.10;99.90
7738;DHT22;29398;45.328;5.558;2023-05-10T06:07:55;14.10;99.90
7738;DHT22;29398;45.328;5.558;2023-05-10T06:08:56;14.20;99.90
7738;DHT22;29398;45.328;5.558;2023-05-10T06:09:57;14.20;99.90
7738;DHT22;29398;45.328;5.558;2023-05-10T06:11:01;14.20;99.90
7738;DHT22;29398;45.328;5.558;2023-05-10T06:12:02;14.20;99.90
7738;DHT22;29398;45.328;5.558;2023-05-10T06:13:04;14.20;99.90
7738;DHT22;29398;45.328;5.558;2023-05-10T06:14:04;14.20;99.90
7738;DHT22;29398;45.328;5.558;2023-05-10T06:15:08;14.20;99.90
7738;DHT22;29398;45.328;5.558;2023-05-10T06:16:10;14.20;99.90
7738;DHT22;29398;45.328;5.558;2023-05-10T06:17:11;14.20;99.90
7738;DHT22;29398;45.328;5.558;2023-05-10T06:18:12;14.20;99.90
7738;DHT22;29398;45.328;5.558;2023-05-10T06:19:14;14.20;99.90
7738;DHT22;29398;45.328;5.558;2023-05-10T06:20:15;14.30;99.90
7738;DHT22;29398;45.328;5.558;2023-05-10T06:21:17;14.20;99.90
7738;DHT22;29398;45.328;5.558;2023-05-10T06:22:18;14.20;99.90
7738;DHT22;29398;45.328;5.558;2023-05-10T06:23:20;14.30;99.90
7738;DHT22;29398;45.328;5.558;2023-05-10T06:24:21;14.30;99.90
7738;DHT22;29398;45.328;5.558;2023-05-10T06:25:23;14.40;99.90
7738;DHT22;29398;45.328;5.558;2023-05-10T06:26:26;14.40;99.90
7738;DHT22;29398;45.328;5.558;2023-05-10T06:27:27;14.40;99.90
7738;DHT22;29398;45.328;5.558;2023-05-10T06:28:29;14.40;99.90
7738;DHT22;29398;45.328;5.558;2023-05-10T06:29:31;14.50;99.90
7738;DHT22;29398;45.328;5.558;2023-05-10T06:30:35;14.50;99.90
7738;DHT22;29398;45.328;5.558;2023-05-10T06:31:36;14.60;99.90
7738;DHT22;29398;45.328;5.558;2023-05-10T06:32:38;14.60;99.90
7738;DHT22;29398;45.328;5.558;2023-05-10T06:33:39;14.70;99.90
7738;DHT22;29398;45.328;5.558;2023-05-10T06:34:41;14.70;99.90
7738;DHT22;29398;45.328;5.558;2023-05-10T06:35:43;14.80;99.90
7738;DHT22;29398;45.328;5.558;2023-05-10T06:36:45;14.80;99.90
7738;DHT22;29398;45.328;5.558;2023-05-10T06:37:46;14.80;99.90
7738;DHT22;29398;45.328;5.558;2023-05-10T06:38:48;14.80;99.90
7738;DHT22;29398;45.328;5.558;2023-05-10T06:39:51;14.80;99.90
7738;DHT22;29398;45.328;5.558;2023-05-10T06:40:52;14.90;99.90
7738;DHT22;29398;45.328;5.558;2023-05-10T06:41:56;14.90;99.90
7738;DHT22;29398;45.328;5.558;2023-05-10T06:42:57;14.90;99.90
7738;DHT22;29398;45.328;5.558;2023-05-10T06:43:58;14.90;99.90